sensor_id;sensor_type;location;lat;lon;timestamp;pressure;altitude;pressure_sealevel;temperature;humidity
72285;BME280;60220;53.552;10.092;2023-05-29T00:01:26;102032.13;;;14.73;51.76
72285;BME280;60220;53.552;10.092;2023-05-29T00:03:53;102042.34;;;15.06;51.65
72285;BME280;60220;53.552;10.092;2023-05-29T00:06:19;102042.78;;;14.61;52.15
72285;BME280;60220;53.552;10.092;2023-05-29T00:08:46;102047.94;;;14.76;51.62
72285;BME280;60220;53.552;10.092;2023-05-29T00:11:13;102034.34;;;14.13;53.07
72285;BME280;60220;53.552;10.092;2023-05-29T00:13:40;102041.81;;;14.70;52.81
72285;BME280;60220;53.552;10.092;2023-05-29T00:16:06;102046.56;;;14.27;53.03
72285;BME280;60220;53.552;10.092;2023-05-29T00:18:36;102044.81;;;14.29;53.64
72285;BME280;60220;53.552;10.092;2023-05-29T00:21:11;102038.56;;;14.43;53.08
72285;BME280;60220;53.552;10.092;2023-05-29T00:23:38;102044.63;;;14.50;53.20
72285;BME280;60220;53.552;10.092;2023-05-29T00:26:07;102047.97;;;14.73;52.80
72285;BME280;60220;53.552;10.092;2023-05-29T00:28:35;102046.31;;;14.63;53.11
72285;BME280;60220;53.552;10.092;2023-05-29T00:31:02;102043.13;;;14.18;53.93
72285;BME280;60220;53.552;10.092;2023-05-29T00:33:31;102052.63;;;14.44;52.88
72285;BME280;60220;53.552;10.092;2023-05-29T00:35:59;102055.59;;;13.92;54.65
72285;BME280;60220;53.552;10.092;2023-05-29T00:38:26;102068.00;;;13.75;54.11
72285;BME280;60220;53.552;10.092;2023-05-29T00:40:52;102067.13;;;13.70;54.88
72285;BME280;60220;53.552;10.092;2023-05-29T00:43:19;102070.63;;;13.78;55.44
72285;BME280;60220;53.552;10.092;2023-05-29T00:45:46;102071.47;;;13.89;54.23
72285;BME280;60220;53.552;10.092;2023-05-29T00:48:13;102080.34;;;13.73;54.69
72285;BME280;60220;53.552;10.092;2023-05-29T00:50:45;102089.25;;;13.48;55.39
72285;BME280;60220;53.552;10.092;2023-05-29T00:53:13;102086.66;;;13.34;56.05
72285;BME280;60220;53.552;10.092;2023-05-29T00:55:40;102093.63;;;13.53;55.94
72285;BME280;60220;53.552;10.092;2023-05-29T00:58:08;102099.88;;;13.25;56.62
72285;BME280;60220;53.552;10.092;2023-05-29T01:00:37;102096.31;;;13.40;56.45
72285;BME280;60220;53.552;10.092;2023-05-29T01:03:04;102101.63;;;13.20;57.31
72285;BME280;60220;53.552;10.092;2023-05-29T01:05:34;102099.88;;;12.47;57.62
72285;BME280;60220;53.552;10.092;2023-05-29T01:08:01;102100.75;;;12.86;57.21
72285;BME280;60220;53.552;10.092;2023-05-29T01:10:29;102103.38;;;13.22;55.72
72285;BME280;60220;53.552;10.092;2023-05-29T01:12:59;102112.19;;;12.79;57.51
72285;BME280;60220;53.552;10.092;2023-05-29T01:15:37;102114.78;;;13.08;56.39
72285;BME280;60220;53.552;10.092;2023-05-29T01:18:34;102123.59;;;12.69;57.09
72285;BME280;60220;53.552;10.092;2023-05-29T01:21:08;102122.72;;;12.88;57.17
72285;BME280;60220;53.552;10.092;2023-05-29T01:23:51;102121.84;;;12.78;56.85
72285;BME280;60220;53.552;10.092;2023-05-29T01:29:18;102131.50;;;12.69;57.72
72285;BME280;60220;53.552;10.092;2023-05-29T01:31:46;102117.41;;;12.45;57.13
72285;BME280;60220;53.552;10.092;2023-05-29T01:34:13;102117.41;;;12.24;57.96
72285;BME280;60220;53.552;10.092;2023-05-29T01:36:40;102111.25;;;12.36;57.97
72285;BME280;60220;53.552;10.092;2023-05-29T01:39:07;102115.69;;;12.87;56.88
72285;BME280;60220;53.552;10.092;2023-05-29T01:41:35;102103.38;;;12.86;56.53
72285;BME280;60220;53.552;10.092;2023-05-29T01:44:03;102110.41;;;12.57;56.99
72285;BME280;60220;53.552;10.092;2023-05-29T01:46:36;102108.66;;;12.46;57.70
72285;BME280;60220;53.552;10.092;2023-05-29T01:49:03;102124.38;;;12.16;58.32
72285;BME280;60220;53.552;10.092;2023-05-29T01:51:30;102113.03;;;12.50;57.04
72285;BME280;60220;53.552;10.092;2023-05-29T01:53:58;102120.97;;;12.60;56.85
72285;BME280;60220;53.552;10.092;2023-05-29T01:56:25;102119.19;;;12.37;57.55
72285;BME280;60220;53.552;10.092;2023-05-29T01:58:56;102119.22;;;12.65;57.20
72285;BME280;60220;53.552;10.092;2023-05-29T02:01:23;102127.00;;;12.04;58.40
72285;BME280;60220;53.552;10.092;2023-05-29T02:03:52;102128.75;;;12.08;57.90
72285;BME280;60220;53.552;10.092;2023-05-29T02:06:19;102123.50;;;12.06;57.71
72285;BME280;60220;53.552;10.092;2023-05-29T02:08:46;102129.59;;;11.92;57.47
72285;BME280;60220;53.552;10.092;2023-05-29T02:11:13;102127.88;;;12.07;57.70
72285;BME280;60220;53.552;10.092;2023-05-29T02:13:41;102125.97;;;11.70;58.38
72285;BME280;60220;53.552;10.092;2023-05-29T02:16:08;102130.50;;;12.00;58.59
72285;BME280;60220;53.552;10.092;2023-05-29T02:18:37;102134.91;;;12.04;58.47
72285;BME280;60220;53.552;10.092;2023-05-29T02:21:05;102134.81;;;11.86;58.31
72285;BME280;60220;53.552;10.092;2023-05-29T02:23:32;102134.72;;;11.68;58.65
72285;BME280;60220;53.552;10.092;2023-05-29T02:25:59;102141.81;;;11.78;58.81
72285;BME280;60220;53.552;10.092;2023-05-29T02:28:26;102134.84;;;11.92;58.36
72285;BME280;60220;53.552;10.092;2023-05-29T02:30:55;102132.84;;;11.42;58.88
72285;BME280;60220;53.552;10.092;2023-05-29T02:33:21;102133.91;;;11.81;58.14
72285;BME280;60220;53.552;10.092;2023-05-29T02:35:48;102130.50;;;12.00;58.09
72285;BME280;60220;53.552;10.092;2023-05-29T02:38:16;102128.44;;;11.43;58.62
72285;BME280;60220;53.552;10.092;2023-05-29T02:40:43;102130.44;;;11.80;58.73
72285;BME280;60220;53.552;10.092;2023-05-29T02:43:12;102113.66;;;11.68;58.61
72285;BME280;60220;53.552;10.092;2023-05-29T02:45:39;102119.81;;;11.71;58.26
72285;BME280;60220;53.552;10.092;2023-05-29T02:48:08;102122.56;;;11.88;58.08
72285;BME280;60220;53.552;10.092;2023-05-29T02:50:35;102119.97;;;11.98;58.12
72285;BME280;60220;53.552;10.092;2023-05-29T02:53:01;102132.25;;;11.99;58.05
72285;BME280;60220;53.552;10.092;2023-05-29T02:55:29;102132.31;;;12.27;56.75
72285;BME280;60220;53.552;10.092;2023-05-29T02:58:03;102121.50;;;11.52;58.56
72285;BME280;60220;53.552;10.092;2023-05-29T03:00:30;102131.34;;;11.96;58.39
72285;BME280;60220;53.552;10.092;2023-05-29T03:02:56;102132.16;;;11.75;59.20
72285;BME280;60220;53.552;10.092;2023-05-29T03:05:25;102136.41;;;11.53;58.81
72285;BME280;60220;53.552;10.092;2023-05-29T03:07:52;102128.59;;;11.69;58.65
72285;BME280;60220;53.552;10.092;2023-05-29T03:10:18;102137.31;;;11.66;58.90
72285;BME280;60220;53.552;10.092;2023-05-29T03:12:47;102130.44;;;11.83;57.99
72285;BME280;60220;53.552;10.092;2023-05-29T03:15:15;102134.72;;;11.64;58.06
72285;BME280;60220;53.552;10.092;2023-05-29T03:17:42;102139.13;;;11.72;59.23
72285;BME280;60220;53.552;10.092;2023-05-29T03:20:11;102137.44;;;11.80;58.60
72285;BME280;60220;53.552;10.092;2023-05-29T03:22:39;102132.88;;;11.45;59.73
72285;BME280;60220;53.552;10.092;2023-05-29T03:25:06;102132.97;;;11.70;58.69
72285;BME280;60220;53.552;10.092;2023-05-29T03:27:32;102131.97;;;11.45;58.76
72285;BME280;60220;53.552;10.092;2023-05-29T03:30:00;102134.56;;;11.42;59.59
72285;BME280;60220;53.552;10.092;2023-05-29T03:32:30;102131.16;;;11.53;59.17
72285;BME280;60220;53.552;10.092;2023-05-29T03:34:59;102129.41;;;11.58;59.39
72285;BME280;60220;53.552;10.092;2023-05-29T03:37:26;102132.94;;;11.63;58.94
72285;BME280;60220;53.552;10.092;2023-05-29T03:39:55;102141.81;;;11.81;58.24
72285;BME280;60220;53.552;10.092;2023-05-29T03:42:22;102134.63;;;11.52;59.20
72285;BME280;60220;53.552;10.092;2023-05-29T03:44:48;102136.41;;;11.56;58.99
72285;BME280;60220;53.552;10.092;2023-05-29T03:47:16;102147.97;;;11.81;58.63
72285;BME280;60220;53.552;10.092;2023-05-29T03:49:43;102143.56;;;11.79;58.17
72285;BME280;60220;53.552;10.092;2023-05-29T03:52:12;102147.00;;;11.69;58.52
72285;BME280;60220;53.552;10.092;2023-05-29T03:54:41;102148.72;;;11.60;58.74
72285;BME280;60220;53.552;10.092;2023-05-29T03:57:10;102149.56;;;11.53;59.32
72285;BME280;60220;53.552;10.092;2023-05-29T03:59:36;102146.91;;;11.53;58.97
72285;BME280;60220;53.552;10.092;2023-05-29T04:02:03;102151.44;;;11.77;58.30
72285;BME280;60220;53.552;10.092;2023-05-29T04:04:34;102152.19;;;11.56;59.41
72285;BME280;60220;53.552;10.092;2023-05-29T04:07:00;102149.50;;;11.46;59.34
72285;BME280;60220;53.552;10.092;2023-05-29T04:09:27;102154.00;;;11.65;58.59
72285;BME280;60220;53.552;10.092;2023-05-29T04:11:54;102162.84;;;11.78;58.44
72285;BME280;60220;53.552;10.092;2023-05-29T04:14:21;102163.59;;;11.57;58.64
72285;BME280;60220;53.552;10.092;2023-05-29T04:16:47;102169.91;;;11.85;58.22
72285;BME280;60220;53.552;10.092;2023-05-29T04:19:18;102156.78;;;11.94;58.23
72285;BME280;60220;53.552;10.092;2023-05-29T04:21:47;102169.91;;;11.85;58.68
72285;BME280;60220;53.552;10.092;2023-05-29T04:24:14;102175.19;;;11.88;58.19
72285;BME280;60220;53.552;10.092;2023-05-29T04:26:43;102177.03;;;12.13;57.13
72285;BME280;60220;53.552;10.092;2023-05-29T04:29:11;102175.19;;;11.85;57.69
72285;BME280;60220;53.552;10.092;2023-05-29T04:31:39;102180.50;;;11.95;58.00
72285;BME280;60220;53.552;10.092;2023-05-29T04:34:08;102179.28;;;11.43;58.63
72285;BME280;60220;53.552;10.092;2023-05-29T04:36:35;102173.19;;;11.47;59.30
72285;BME280;60220;53.552;10.092;2023-05-29T04:39:05;102177.56;;;11.45;59.23
72285;BME280;60220;53.552;10.092;2023-05-29T04:41:32;102180.28;;;11.66;59.25
72285;BME280;60220;53.552;10.092;2023-05-29T04:44:06;102182.13;;;11.77;59.35
72285;BME280;60220;53.552;10.092;2023-05-29T04:46:33;102178.44;;;11.47;58.71
72285;BME280;60220;53.552;10.092;2023-05-29T04:49:00;102176.09;;;11.93;57.81
72285;BME280;60220;53.552;10.092;2023-05-29T04:51:31;102182.25;;;12.01;58.08
72285;BME280;60220;53.552;10.092;2023-05-29T04:53:58;102182.00;;;11.58;58.63
72285;BME280;60220;53.552;10.092;2023-05-29T04:56:26;102179.72;;;12.24;57.99
72285;BME280;60220;53.552;10.092;2023-05-29T04:58:55;102183.28;;;12.56;56.51
72285;BME280;60220;53.552;10.092;2023-05-29T05:01:23;102194.75;;;12.87;55.76
72285;BME280;60220;53.552;10.092;2023-05-29T05:03:50;102193.88;;;13.08;54.47
72285;BME280;60220;53.552;10.092;2023-05-29T05:06:19;102193.84;;;13.62;53.43
72285;BME280;60220;53.552;10.092;2023-05-29T05:08:46;102193.84;;;13.58;53.92
72285;BME280;60220;53.552;10.092;2023-05-29T05:11:15;102193.78;;;13.76;52.26
72285;BME280;60220;53.552;10.092;2023-05-29T05:13:44;102196.50;;;13.00;53.04
72285;BME280;60220;53.552;10.092;2023-05-29T05:16:11;102196.53;;;13.30;52.55
72285;BME280;60220;53.552;10.092;2023-05-29T05:18:38;102195.66;;;13.33;52.67
72285;BME280;60220;53.552;10.092;2023-05-29T05:21:07;102193.91;;;13.20;53.16
72285;BME280;60220;53.552;10.092;2023-05-29T05:23:34;102193.91;;;13.21;53.29
72285;BME280;60220;53.552;10.092;2023-05-29T05:26:01;102206.88;;;14.14;51.18
72285;BME280;60220;53.552;10.092;2023-05-29T05:28:30;102201.72;;;13.76;51.76
72285;BME280;60220;53.552;10.092;2023-05-29T05:30:58;102199.16;;;13.53;52.29
72285;BME280;60220;53.552;10.092;2023-05-29T05:33:27;102198.88;;;14.28;50.60
72285;BME280;60220;53.552;10.092;2023-05-29T05:35:54;102203.50;;;13.69;52.48
72285;BME280;60220;53.552;10.092;2023-05-29T05:38:22;102191.25;;;13.09;53.00
72285;BME280;60220;53.552;10.092;2023-05-29T05:40:52;102196.47;;;13.61;52.67
72285;BME280;60220;53.552;10.092;2023-05-29T05:43:21;102194.72;;;13.51;52.55
72285;BME280;60220;53.552;10.092;2023-05-29T05:45:47;102197.41;;;13.42;52.83
72285;BME280;60220;53.552;10.092;2023-05-29T05:48:15;102195.63;;;12.89;53.23
72285;BME280;60220;53.552;10.092;2023-05-29T05:50:42;102197.38;;;13.01;54.19
72285;BME280;60220;53.552;10.092;2023-05-29T05:53:09;102196.53;;;13.09;53.88
72285;BME280;60220;53.552;10.092;2023-05-29T05:55:35;102196.56;;;13.18;53.70
72285;BME280;60220;53.552;10.092;2023-05-29T05:58:02;102200.88;;;12.90;54.01
72285;BME280;60220;53.552;10.092;2023-05-29T06:00:31;102194.78;;;12.90;54.15
72285;BME280;60220;53.552;10.092;2023-05-29T06:02:58;102199.16;;;13.35;54.29
72285;BME280;60220;53.552;10.092;2023-05-29T06:05:26;102193.91;;;13.20;54.10
72285;BME280;60220;53.552;10.092;2023-05-29T06:07:53;102191.16;;;13.77;52.71
72285;BME280;60220;53.552;10.092;2023-05-29T06:10:22;102194.44;;;14.30;51.25
72285;BME280;60220;53.552;10.092;2023-05-29T06:12:49;102195.44;;;14.12;50.30
72285;BME280;60220;53.552;10.092;2023-05-29T06:15:16;102201.69;;;13.82;51.01
72285;BME280;60220;53.552;10.092;2023-05-29T06:17:42;102203.47;;;13.75;52.42
72285;BME280;60220;53.552;10.092;2023-05-29T06:20:11;102208.78;;;13.74;51.95
72285;BME280;60220;53.552;10.092;2023-05-29T06:22:42;102203.44;;;13.86;51.84
72285;BME280;60220;53.552;10.092;2023-05-29T06:25:18;102206.78;;;14.31;49.83
72285;BME280;60220;53.552;10.092;2023-05-29T06:27:45;102203.25;;;14.32;50.47
72285;BME280;60220;53.552;10.092;2023-05-29T06:30:13;102204.91;;;14.57;50.25
72285;BME280;60220;53.552;10.092;2023-05-29T06:32:40;102199.63;;;14.57;48.78
72285;BME280;60220;53.552;10.092;2023-05-29T06:35:07;102191.50;;;14.84;48.27
72285;BME280;60220;53.552;10.092;2023-05-29T06:37:33;102195.78;;;15.00;48.68
72285;BME280;60220;53.552;10.092;2023-05-29T06:40:02;102195.69;;;15.13;47.88
72285;BME280;60220;53.552;10.092;2023-05-29T06:42:29;102200.53;;;15.63;46.31
72285;BME280;60220;53.552;10.092;2023-05-29T06:44:56;102202.50;;;15.38;48.02
72285;BME280;60220;53.552;10.092;2023-05-29T06:47:25;102209.94;;;14.90;47.96
72285;BME280;60220;53.552;10.092;2023-05-29T06:49:52;102198.53;;;15.81;46.72
72285;BME280;60220;53.552;10.092;2023-05-29T06:52:22;102198.66;;;16.41;44.92
72285;BME280;60220;53.552;10.092;2023-05-29T06:54:50;102206.38;;;15.92;45.53
72285;BME280;60220;53.552;10.092;2023-05-29T06:57:20;102206.75;;;16.29;44.32
72285;BME280;60220;53.552;10.092;2023-05-29T06:59:47;102201.69;;;15.30;46.13
72285;BME280;60220;53.552;10.092;2023-05-29T07:02:14;102206.59;;;15.69;45.60
72285;BME280;60220;53.552;10.092;2023-05-29T07:04:40;102219.53;;;15.98;43.65
72285;BME280;60220;53.552;10.092;2023-05-29T07:07:07;102226.72;;;16.57;42.57
72285;BME280;60220;53.552;10.092;2023-05-29T07:09:35;102222.03;;;16.10;43.92
72285;BME280;60220;53.552;10.092;2023-05-29T07:12:02;102220.41;;;15.99;43.30
72285;BME280;60220;53.552;10.092;2023-05-29T07:14:30;102227.66;;;16.53;42.82
72285;BME280;60220;53.552;10.092;2023-05-29T07:16:56;102226.94;;;16.39;42.97
72285;BME280;60220;53.552;10.092;2023-05-29T07:19:23;102223.31;;;16.46;42.83
72285;BME280;60220;53.552;10.092;2023-05-29T07:21:50;102211.00;;;15.73;45.14
72285;BME280;60220;53.552;10.092;2023-05-29T07:24:16;102215.53;;;15.62;45.90
72285;BME280;60220;53.552;10.092;2023-05-29T07:26:45;102217.38;;;15.49;46.06
72285;BME280;60220;53.552;10.092;2023-05-29T07:29:12;102232.44;;;15.43;46.42
72285;BME280;60220;53.552;10.092;2023-05-29T07:31:41;102237.16;;;16.01;45.23
72285;BME280;60220;53.552;10.092;2023-05-29T07:34:07;102238.78;;;16.79;43.62
72285;BME280;60220;53.552;10.092;2023-05-29T07:36:34;102237.91;;;16.12;44.85
72285;BME280;60220;53.552;10.092;2023-05-29T07:39:01;102244.31;;;15.92;45.12
72285;BME280;60220;53.552;10.092;2023-05-29T07:41:30;102241.88;;;16.46;43.21
72285;BME280;60220;53.552;10.092;2023-05-29T07:43:57;102233.19;;;16.35;43.36
72285;BME280;60220;53.552;10.092;2023-05-29T07:46:23;102227.66;;;15.81;44.28
72285;BME280;60220;53.552;10.092;2023-05-29T07:48:54;102236.72;;;16.37;43.75
72285;BME280;60220;53.552;10.092;2023-05-29T07:51:23;102240.75;;;16.65;44.28
72285;BME280;60220;53.552;10.092;2023-05-29T07:53:50;102236.13;;;16.79;43.81
72285;BME280;60220;53.552;10.092;2023-05-29T07:56:18;102235.41;;;17.76;42.32
72285;BME280;60220;53.552;10.092;2023-05-29T07:58:45;102228.78;;;17.98;40.90
72285;BME280;60220;53.552;10.092;2023-05-29T08:01:14;102227.78;;;18.43;40.90
72285;BME280;60220;53.552;10.092;2023-05-29T08:03:41;102235.41;;;17.76;39.77
72285;BME280;60220;53.552;10.092;2023-05-29T08:06:09;102239.25;;;17.06;41.22
72285;BME280;60220;53.552;10.092;2023-05-29T08:08:36;102245.00;;;16.78;42.04
72285;BME280;60220;53.552;10.092;2023-05-29T08:11:03;102242.13;;;16.92;42.70
72285;BME280;60220;53.552;10.092;2023-05-29T08:13:30;102234.31;;;17.86;40.72
72285;BME280;60220;53.552;10.092;2023-05-29T08:15:56;102243.69;;;17.05;40.94
72285;BME280;60220;53.552;10.092;2023-05-29T08:18:25;102237.63;;;18.40;38.62
72285;BME280;60220;53.552;10.092;2023-05-29T08:20:51;102238.84;;;17.81;40.45
72285;BME280;60220;53.552;10.092;2023-05-29T08:23:20;102235.81;;;17.01;41.87
72285;BME280;60220;53.552;10.092;2023-05-29T08:25:47;102234.78;;;17.58;41.90
72285;BME280;60220;53.552;10.092;2023-05-29T08:28:14;102235.41;;;17.76;39.84
72285;BME280;60220;53.552;10.092;2023-05-29T08:30:41;102240.59;;;17.33;41.10
72285;BME280;60220;53.552;10.092;2023-05-29T08:33:10;102230.19;;;17.19;44.06
72285;BME280;60220;53.552;10.092;2023-05-29T08:35:39;102229.47;;;17.61;42.82
72285;BME280;60220;53.552;10.092;2023-05-29T08:38:06;102231.06;;;17.19;40.50
72285;BME280;60220;53.552;10.092;2023-05-29T08:40:37;102229.13;;;18.66;38.40
72285;BME280;60220;53.552;10.092;2023-05-29T08:43:10;102222.44;;;18.46;36.78
72285;BME280;60220;53.552;10.092;2023-05-29T08:45:42;102220.34;;;17.27;39.52
72285;BME280;60220;53.552;10.092;2023-05-29T08:48:11;102225.91;;;17.10;41.08
72285;BME280;60220;53.552;10.092;2023-05-29T08:50:43;102236.28;;;18.62;38.08
72285;BME280;60220;53.552;10.092;2023-05-29T08:53:10;102232.19;;;18.86;37.63
72285;BME280;60220;53.552;10.092;2023-05-29T08:55:41;102227.75;;;18.46;37.87
72285;BME280;60220;53.552;10.092;2023-05-29T08:58:08;102228.25;;;19.02;36.61
72285;BME280;60220;53.552;10.092;2023-05-29T09:00:38;102239.50;;;18.78;38.42
72285;BME280;60220;53.552;10.092;2023-05-29T09:03:06;102234.53;;;18.98;38.49
72285;BME280;60220;53.552;10.092;2023-05-29T09:05:35;102237.97;;;19.39;37.10
72285;BME280;60220;53.552;10.092;2023-05-29T09:08:05;102238.50;;;18.82;38.30
72285;BME280;60220;53.552;10.092;2023-05-29T09:10:32;102233.38;;;19.44;38.67
72285;BME280;60220;53.552;10.092;2023-05-29T09:13:00;102236.41;;;19.65;36.70
72285;BME280;60220;53.552;10.092;2023-05-29T09:15:27;102234.03;;;19.55;35.95
72285;BME280;60220;53.552;10.092;2023-05-29T09:17:55;102228.84;;;19.49;37.25
72285;BME280;60220;53.552;10.092;2023-05-29T09:20:26;102236.84;;;19.13;38.48
72285;BME280;60220;53.552;10.092;2023-05-29T09:22:54;102237.16;;;19.01;39.16
72285;BME280;60220;53.552;10.092;2023-05-29T09:25:23;102239.59;;;19.46;38.28
72285;BME280;60220;53.552;10.092;2023-05-29T09:27:54;102234.94;;;19.18;38.81
72285;BME280;60220;53.552;10.092;2023-05-29T09:30:36;102238.63;;;18.76;39.15
72285;BME280;60220;53.552;10.092;2023-05-29T09:33:05;102241.06;;;19.22;37.68
72285;BME280;60220;53.552;10.092;2023-05-29T09:35:33;102236.72;;;18.82;38.50
72285;BME280;60220;53.552;10.092;2023-05-29T09:38:00;102239.66;;;18.69;38.15
72285;BME280;60220;53.552;10.092;2023-05-29T09:40:29;102238.88;;;18.65;39.79
72285;BME280;60220;53.552;10.092;2023-05-29T09:43:03;102236.97;;;18.30;41.25
72285;BME280;60220;53.552;10.092;2023-05-29T09:45:36;102240.63;;;18.66;40.96
72285;BME280;60220;53.552;10.092;2023-05-29T09:48:05;102236.75;;;18.81;39.65
72285;BME280;60220;53.552;10.092;2023-05-29T09:50:33;102237.56;;;18.83;40.14
72285;BME280;60220;53.552;10.092;2023-05-29T09:53:02;102225.88;;;18.10;40.62
72285;BME280;60220;53.552;10.092;2023-05-29T09:55:30;102236.19;;;18.67;40.54
72285;BME280;60220;53.552;10.092;2023-05-29T09:57:58;102241.34;;;18.33;41.25
72285;BME280;60220;53.552;10.092;2023-05-29T10:00:28;102231.56;;;18.33;42.48
72285;BME280;60220;53.552;10.092;2023-05-29T10:02:57;102226.25;;;18.33;40.01
72285;BME280;60220;53.552;10.092;2023-05-29T10:05:24;102229.84;;;18.32;40.98
72285;BME280;60220;53.552;10.092;2023-05-29T10:07:53;102226.09;;;18.41;38.89
72285;BME280;60220;53.552;10.092;2023-05-29T10:10:21;102227.19;;;18.32;39.56
72285;BME280;60220;53.552;10.092;2023-05-29T10:12:50;102217.38;;;18.34;41.52
72285;BME280;60220;53.552;10.092;2023-05-29T10:15:21;102211.56;;;18.96;38.92
72285;BME280;60220;53.552;10.092;2023-05-29T10:17:50;102214.44;;;18.86;42.14
72285;BME280;60220;53.552;10.092;2023-05-29T10:20:20;102209.59;;;19.38;39.61
72285;BME280;60220;53.552;10.092;2023-05-29T10:22:49;102208.31;;;19.18;39.07
72285;BME280;60220;53.552;10.092;2023-05-29T10:25:18;102212.22;;;17.84;40.35
72285;BME280;60220;53.552;10.092;2023-05-29T10:27:48;102210.91;;;18.06;40.09
72285;BME280;60220;53.552;10.092;2023-05-29T10:30:25;102210.66;;;18.58;38.86
72285;BME280;60220;53.552;10.092;2023-05-29T10:36:12;102202.09;;;19.18;39.81
72285;BME280;60220;53.552;10.092;2023-05-29T10:38:41;102190.72;;;18.37;39.13
72285;BME280;60220;53.552;10.092;2023-05-29T10:41:31;102188.91;;;19.13;38.97
72285;BME280;60220;53.552;10.092;2023-05-29T10:47:22;102193.22;;;18.45;38.87
72285;BME280;60220;53.552;10.092;2023-05-29T10:49:49;102192.25;;;18.87;38.76
72285;BME280;60220;53.552;10.092;2023-05-29T10:52:19;102199.13;;;18.96;38.88
72285;BME280;60220;53.552;10.092;2023-05-29T10:54:52;102192.91;;;18.97;39.24
72285;BME280;60220;53.552;10.092;2023-05-29T10:57:21;102199.66;;;19.10;40.76
72285;BME280;60220;53.552;10.092;2023-05-29T11:00:02;102191.78;;;19.06;39.27
72285;BME280;60220;53.552;10.092;2023-05-29T11:02:36;102193.84;;;18.58;39.31
72285;BME280;60220;53.552;10.092;2023-05-29T11:05:05;102186.94;;;19.21;39.75
72285;BME280;60220;53.552;10.092;2023-05-29T11:07:34;102172.41;;;19.01;37.98
72285;BME280;60220;53.552;10.092;2023-05-29T11:10:13;102173.34;;;18.98;40.15
72285;BME280;60220;53.552;10.092;2023-05-29T11:12:57;102180.13;;;19.11;38.24
72285;BME280;60220;53.552;10.092;2023-05-29T11:15:25;102164.81;;;18.07;38.52
72285;BME280;60220;53.552;10.092;2023-05-29T11:17:52;102162.47;;;19.07;37.44
72285;BME280;60220;53.552;10.092;2023-05-29T11:20:28;102170.56;;;19.37;37.12
72285;BME280;60220;53.552;10.092;2023-05-29T11:23:06;102167.72;;;19.10;38.00
72285;BME280;60220;53.552;10.092;2023-05-29T11:25:37;102166.81;;;19.44;37.67
72285;BME280;60220;53.552;10.092;2023-05-29T11:28:04;102168.22;;;19.24;38.36
72285;BME280;60220;53.552;10.092;2023-05-29T11:30:44;102177.97;;;19.59;36.56
72285;BME280;60220;53.552;10.092;2023-05-29T11:33:22;102176.91;;;19.97;39.10
72285;BME280;60220;53.552;10.092;2023-05-29T11:35:56;102169.81;;;20.26;35.89
72285;BME280;60220;53.552;10.092;2023-05-29T11:38:25;102162.19;;;19.52;35.84
72285;BME280;60220;53.552;10.092;2023-05-29T11:40:52;102166.31;;;19.29;38.30
72285;BME280;60220;53.552;10.092;2023-05-29T11:43:23;102152.03;;;18.98;37.03
72285;BME280;60220;53.552;10.092;2023-05-29T11:45:49;102162.44;;;19.75;37.80
72285;BME280;60220;53.552;10.092;2023-05-29T11:48:16;102164.78;;;19.86;35.25
72285;BME280;60220;53.552;10.092;2023-05-29T11:50:45;102161.53;;;20.05;35.63
72285;BME280;60220;53.552;10.092;2023-05-29T11:53:12;102170.91;;;20.48;34.79
72285;BME280;60220;53.552;10.092;2023-05-29T11:55:40;102168.91;;;19.97;34.51
72285;BME280;60220;53.552;10.092;2023-05-29T11:58:06;102177.28;;;20.13;36.22
72285;BME280;60220;53.552;10.092;2023-05-29T12:00:37;102180.69;;;20.18;34.21
72285;BME280;60220;53.552;10.092;2023-05-29T12:03:04;102172.97;;;19.78;34.98
72285;BME280;60220;53.552;10.092;2023-05-29T12:05:33;102161.25;;;19.85;34.92
72285;BME280;60220;53.552;10.092;2023-05-29T12:08:10;102149.81;;;19.49;36.62
72285;BME280;60220;53.552;10.092;2023-05-29T12:10:37;102147.38;;;20.03;34.74
72285;BME280;60220;53.552;10.092;2023-05-29T12:13:05;102162.56;;;20.01;36.18
72285;BME280;60220;53.552;10.092;2023-05-29T12:15:31;102159.59;;;20.10;35.45
72285;BME280;60220;53.552;10.092;2023-05-29T12:17:59;102159.09;;;20.27;34.18
72285;BME280;60220;53.552;10.092;2023-05-29T12:20:28;102155.56;;;20.27;36.06
72285;BME280;60220;53.552;10.092;2023-05-29T12:22:59;102158.94;;;20.61;35.81
72285;BME280;60220;53.552;10.092;2023-05-29T12:25:27;102161.25;;;20.44;34.21
72285;BME280;60220;53.552;10.092;2023-05-29T12:27:55;102168.72;;;20.33;35.38
72285;BME280;60220;53.552;10.092;2023-05-29T12:30:24;102150.19;;;19.68;35.82
72285;BME280;60220;53.552;10.092;2023-05-29T12:32:52;102158.06;;;19.72;37.67
72285;BME280;60220;53.552;10.092;2023-05-29T12:35:22;102153.06;;;20.20;35.67
72285;BME280;60220;53.552;10.092;2023-05-29T12:37:52;102145.72;;;20.84;34.97
72285;BME280;60220;53.552;10.092;2023-05-29T12:40:21;102151.13;;;21.08;33.94
72285;BME280;60220;53.552;10.092;2023-05-29T12:42:54;102149.00;;;20.66;34.68
72285;BME280;60220;53.552;10.092;2023-05-29T12:45:26;102148.53;;;21.06;34.43
72285;BME280;60220;53.552;10.092;2023-05-29T12:47:54;102133.91;;;20.91;34.51
72285;BME280;60220;53.552;10.092;2023-05-29T12:50:23;102130.81;;;20.77;35.28
72285;BME280;60220;53.552;10.092;2023-05-29T12:52:54;102121.72;;;20.83;34.75
72285;BME280;60220;53.552;10.092;2023-05-29T12:55:21;102130.53;;;20.86;35.44
72285;BME280;60220;53.552;10.092;2023-05-29T12:57:51;102120.56;;;20.65;34.27